Terminal Aerodrome Forecast
Issued by NWS

Home | Current Version | Previous Version | Text Only | Print | Product List | Glossary On
Versions: 1 2 3 4 5 6 7 8 9 10 11 12 13
000
FTUS43 KGRR 220530
TAFBTL
TAF
KBTL 220530Z 2206/2306 18008KT P6SM SCT080 BKN120 WS020/21040KT
     FM221400 17012G22KT P6SM SCT035 BKN050
     FM222100 17014G24KT P6SM VCSH OVC035
     FM230000 18012KT 4SM -SHRA BR OVC025
     FM230400 23009KT 2SM -SHRA BR OVC008=

USA.gov is the U.S. government's official web portal to all federal, state and local government web resources and services.